Time;durP1;ratioP1;P1;durP2;ratioP2;P2;SDS_P1;SDS_P2;PMS_P1;PMS_P2;Temp;Humidity;BMP_temperature;BMP_pressure;BME280_temperature;BME280_humidity;BME280_pressure;Samples;Min_cycle;Max_cycle;Signal;HPM_P1;HPM_P2
2023/05/04 00:01:24;;;;;;;3.70;2.30;;;;;;;20.90;55.80;100681.63;5091507;28;20040;-64
2023/05/04 00:03:54;;;;;;;2.90;2.00;;;;;;;20.88;55.71;100679.09;5091444;28;20052;-65
2023/05/04 00:06:22;;;;;;;3.67;2.10;;;;;;;20.88;56.04;100675.53;5091149;28;20055;-65
2023/05/04 00:08:50;;;;;;;3.30;2.10;;;;;;;20.87;55.79;100677.38;5091490;28;20045;-64
2023/05/04 00:11:19;;;;;;;3.38;2.38;;;;;;;20.86;55.96;100670.25;5091504;28;20040;-64
2023/05/04 00:13:47;;;;;;;2.90;2.10;;;;;;;20.85;55.78;100679.38;5091385;28;20048;-64
2023/05/04 00:16:16;;;;;;;3.38;2.20;;;;;;;20.85;55.61;100679.38;5091323;28;20052;-64
2023/05/04 00:18:44;;;;;;;2.90;2.00;;;;;;;20.85;55.63;100676.69;5091542;28;20136;-64
2023/05/04 00:21:13;;;;;;;3.03;2.08;;;;;;;20.84;55.95;100673.13;5092766;28;20123;-64
2023/05/04 00:23:41;;;;;;;3.78;2.50;;;;;;;20.83;55.58;100665.94;5091304;28;20048;-64
2023/05/04 00:26:09;;;;;;;3.17;2.17;;;;;;;20.82;55.64;100666.97;5091199;28;20451;-64
2023/05/04 00:28:38;;;;;;;3.20;2.15;;;;;;;20.81;55.51;100664.41;5091304;28;20044;-64
2023/05/04 00:31:06;;;;;;;3.63;2.15;;;;;;;20.81;55.61;100664.41;5091179;28;20044;-64
2023/05/04 00:33:34;;;;;;;3.40;2.50;;;;;;;20.80;55.85;100658.13;5093907;28;20454;-65
2023/05/04 00:36:03;;;;;;;3.10;2.15;;;;;;;20.79;55.85;100652.84;5095162;28;20059;-65
2023/05/04 00:38:46;;;;;;;3.35;2.10;;;;;;;20.79;55.65;100658.28;5095028;28;20054;-65
2023/05/04 00:41:15;;;;;;;3.28;2.25;;;;;;;20.78;55.65;100668.28;5094805;28;20044;-65
2023/05/04 00:43:43;;;;;;;3.75;2.20;;;;;;;20.79;55.81;100671.84;5095005;28;20076;-65
2023/05/04 00:46:12;;;;;;;3.90;2.17;;;;;;;20.78;55.74;100676.41;5094573;28;20054;-64
2023/05/04 00:48:41;;;;;;;3.90;2.38;;;;;;;20.79;55.87;100677.25;5094898;28;20454;-65
2023/05/04 00:51:11;;;;;;;3.60;2.17;;;;;;;20.78;55.80;100672.84;5094715;28;20075;-65
2023/05/04 00:53:41;;;;;;;3.50;2.35;;;;;;;20.77;55.82;100671.13;5094601;28;20130;-65
2023/05/04 00:56:10;;;;;;;4.55;2.25;;;;;;;20.78;55.57;100670.13;5094479;28;20127;-65
2023/05/04 00:58:38;;;;;;;2.83;1.90;;;;;;;20.76;55.45;100672.13;5094705;28;20044;-66
2023/05/04 01:01:07;;;;;;;2.90;2.05;;;;;;;20.75;55.30;100667.69;5094549;28;20046;-65
2023/05/04 01:03:35;;;;;;;3.42;2.20;;;;;;;20.74;55.36;100671.41;5094588;28;20044;-66
2023/05/04 01:06:15;;;;;;;3.55;2.25;;;;;;;20.73;55.39;100670.56;5094454;28;20094;-65
2023/05/04 01:08:50;;;;;;;3.35;2.05;;;;;;;20.73;55.52;100672.41;5094434;28;20052;-65
2023/05/04 01:11:23;;;;;;;3.15;2.05;;;;;;;20.72;55.45;100666.13;5094248;28;20044;-65
2023/05/04 01:13:51;;;;;;;3.42;2.20;;;;;;;20.71;55.63;100666.28;5094252;28;20047;-65
2023/05/04 01:16:20;;;;;;;3.90;2.20;;;;;;;20.71;55.32;100674.44;5094097;28;20048;-65
2023/05/04 01:18:49;;;;;;;3.03;1.90;;;;;;;20.71;55.64;100672.56;5092876;28;20052;-65
2023/05/04 01:21:17;;;;;;;3.28;2.00;;;;;;;20.70;55.37;100670.00;5093905;28;20051;-65
2023/05/04 01:23:46;;;;;;;3.45;2.20;;;;;;;20.69;55.31;100662.88;5094189;28;20132;-65
2023/05/04 01:26:22;;;;;;;3.30;2.08;;;;;;;20.68;55.64;100661.19;5094119;28;20048;-65
2023/05/04 01:29:08;;;;;;;2.97;1.95;;;;;;;20.68;55.32;100666.59;5093986;28;20093;-65
2023/05/04 01:31:38;;;;;;;3.28;2.20;;;;;;;20.67;55.59;100662.19;5093821;28;20093;-65
2023/05/04 01:34:08;;;;;;;3.50;2.17;;;;;;;20.67;55.36;100667.59;5093671;28;20055;-65
2023/05/04 01:36:37;;;;;;;3.30;2.10;;;;;;;20.66;55.48;100665.91;5092702;28;20087;-65
2023/05/04 01:39:07;;;;;;;3.33;2.20;;;;;;;20.65;55.40;100669.59;5080408;28;20056;-65
2023/05/04 01:41:35;;;;;;;3.13;2.00;;;;;;;20.65;55.26;100666.88;5083032;28;20052;-65
2023/05/04 01:44:04;;;;;;;2.90;2.03;;;;;;;20.64;55.13;100670.59;5092628;28;20044;-65
2023/05/04 01:46:33;;;;;;;3.22;2.10;;;;;;;20.63;55.36;100663.47;5093557;28;20086;-65
2023/05/04 01:49:01;;;;;;;4.10;2.20;;;;;;;20.63;55.28;100663.47;5073704;28;20110;-65
2023/05/04 01:51:29;;;;;;;3.72;2.20;;;;;;;20.61;55.32;100660.06;5073652;28;20052;-65
2023/05/04 01:53:57;;;;;;;3.05;2.05;;;;;;;20.62;55.25;100661.75;5073332;28;20048;-66
2023/05/04 01:56:27;;;;;;;3.42;2.10;;;;;;;20.61;55.33;100654.63;5073061;28;20064;-65
2023/05/04 01:58:55;;;;;;;3.22;2.10;;;;;;;20.60;55.44;100650.22;5073074;28;20053;-65
2023/05/04 02:01:23;;;;;;;3.22;2.10;;;;;;;20.59;55.58;100643.94;5073292;28;20048;-66
2023/05/04 02:03:51;;;;;;;3.00;2.10;;;;;;;20.58;55.22;100643.09;5073075;28;20131;-65
2023/05/04 02:06:20;;;;;;;3.78;2.20;;;;;;;20.57;55.52;100644.09;5072678;28;20048;-65
2023/05/04 02:08:48;;;;;;;3.40;2.28;;;;;;;20.56;55.39;100641.53;5072868;28;20091;-65
2023/05/04 02:11:16;;;;;;;4.07;2.30;;;;;;;20.56;55.55;100639.69;5072823;28;20045;-65
2023/05/04 02:13:46;;;;;;;2.40;1.90;;;;;;;20.55;55.53;100645.22;5072663;28;20049;-65
2023/05/04 02:16:14;;;;;;;2.90;1.90;;;;;;;20.55;55.45;100646.06;5072859;28;20068;-65
2023/05/04 02:18:42;;;;;;;3.30;2.08;;;;;;;20.54;55.23;100641.66;5072692;28;20074;-65
2023/05/04 02:21:10;;;;;;;2.55;1.80;;;;;;;20.53;55.60;100645.38;5072555;28;20477;-65
2023/05/04 02:23:38;;;;;;;3.05;2.10;;;;;;;20.53;55.21;100647.22;5072649;28;20048;-65
2023/05/04 02:26:06;;;;;;;2.60;1.90;;;;;;;20.52;55.49;100651.78;5085825;28;20565;-65
2023/05/04 02:28:35;;;;;;;2.85;1.92;;;;;;;20.51;55.38;100644.66;5092797;28;20491;-65
2023/05/04 02:31:04;;;;;;;3.30;2.05;;;;;;;20.52;55.50;100640.09;5092787;28;20075;-65
2023/05/04 02:33:33;;;;;;;2.15;1.80;;;;;;;20.50;55.31;100637.53;5092878;28;20044;-65
2023/05/04 02:36:01;;;;;;;3.78;2.08;;;;;;;20.50;55.45;100642.13;5092507;28;20044;-65
2023/05/04 02:38:29;;;;;;;2.88;1.90;;;;;;;20.49;55.44;100638.53;5092465;28;20055;-65
2023/05/04 02:40:58;;;;;;;2.90;2.00;;;;;;;20.48;55.21;100642.25;5092745;28;20413;-65
2023/05/04 02:43:26;;;;;;;2.85;1.90;;;;;;;20.47;55.45;100650.53;5092586;28;20051;-65
2023/05/04 02:45:54;;;;;;;3.17;1.92;;;;;;;20.48;55.23;100655.81;5092470;28;20087;-65
2023/05/04 02:48:24;;;;;;;2.97;2.00;;;;;;;20.47;55.37;100654.09;5092245;28;20097;-65
2023/05/04 02:50:53;;;;;;;2.55;1.85;;;;;;;20.46;55.17;100652.41;5092336;28;20044;-65
2023/05/04 02:53:28;;;;;;;3.10;1.83;;;;;;;20.46;55.01;100654.22;5092287;28;20143;-65
2023/05/04 02:55:56;;;;;;;2.70;1.75;;;;;;;20.45;55.13;100647.94;5092277;28;20131;-65
2023/05/04 02:58:25;;;;;;;3.33;2.00;;;;;;;20.45;55.34;100656.09;5092102;28;20488;-65
2023/05/04 03:00:54;;;;;;;3.20;2.10;;;;;;;20.43;55.35;100652.66;5092237;28;20073;-64
2023/05/04 03:03:24;;;;;;;3.75;2.33;;;;;;;20.42;54.96;100656.34;5092125;28;20127;-64
2023/05/04 03:05:52;;;;;;;3.17;2.17;;;;;;;20.41;55.23;100651.94;5091824;28;20051;-64
2023/05/04 03:08:20;;;;;;;3.55;2.28;;;;;;;20.41;54.99;100648.38;5093373;28;20052;-64
2023/05/04 03:10:50;;;;;;;3.10;2.13;;;;;;;20.40;55.35;100654.78;5092057;28;20048;-64
2023/05/04 03:13:19;;;;;;;3.08;2.00;;;;;;;20.38;55.25;100657.66;5091727;28;20127;-63
2023/05/04 03:15:47;;;;;;;2.67;1.85;;;;;;;20.38;55.10;100654.94;5091710;28;20050;-63
2023/05/04 03:18:15;;;;;;;3.08;2.10;;;;;;;20.38;55.24;100656.81;5091637;28;20091;-63
2023/05/04 03:20:46;;;;;;;2.85;2.00;;;;;;;20.38;54.93;100660.38;5091722;28;20047;-64
2023/05/04 03:23:14;;;;;;;2.92;2.10;;;;;;;20.37;54.90;100664.06;5091981;28;20074;-64
2023/05/04 03:25:43;;;;;;;4.13;2.00;;;;;;;20.36;54.84;100665.03;5091774;28;20513;-63
2023/05/04 03:28:11;;;;;;;4.13;1.90;;;;;;;20.35;54.91;100665.19;5091703;28;20101;-64
2023/05/04 03:30:40;;;;;;;3.00;1.95;;;;;;;20.36;55.04;100664.19;5091739;28;20048;-64
2023/05/04 03:33:08;;;;;;;3.53;2.13;;;;;;;20.32;54.97;100660.94;5091973;28;20105;-65
2023/05/04 03:35:36;;;;;;;2.80;2.00;;;;;;;20.31;54.98;100670.06;5091784;28;20040;-65
2023/05/04 03:38:23;;;;;;;2.85;1.98;;;;;;;20.28;55.24;100665.81;5091491;28;20052;-64
2023/05/04 03:40:53;;;;;;;3.42;2.08;;;;;;;20.28;55.25;100670.38;5091673;28;20048;-65
2023/05/04 03:43:21;;;;;;;2.95;2.00;;;;;;;20.28;55.04;100667.66;5091486;28;20412;-65
2023/05/04 03:45:52;;;;;;;3.40;1.95;;;;;;;20.27;55.13;100665.94;5091695;28;20078;-65
2023/05/04 03:48:21;;;;;;;3.25;1.90;;;;;;;20.26;55.17;100673.19;5091636;28;20048;-65
2023/05/04 03:50:49;;;;;;;2.78;1.90;;;;;;;20.25;55.21;100674.19;5091691;28;20109;-65
2023/05/04 03:53:17;;;;;;;2.90;1.80;;;;;;;20.24;54.99;100679.75;5091328;28;20070;-65
2023/05/04 03:55:48;;;;;;;3.83;2.20;;;;;;;20.23;55.19;100672.63;5124179;27;20044;-64
2023/05/04 03:58:16;;;;;;;3.45;2.15;;;;;;;20.22;54.97;100674.50;5091732;28;20139;-65
2023/05/04 04:00:44;;;;;;;3.20;1.77;;;;;;;20.22;55.05;100670.94;5091611;28;20047;-65
2023/05/04 04:03:13;;;;;;;3.20;2.08;;;;;;;20.22;54.97;100679.91;5091477;28;20048;-64
2023/05/04 04:05:41;;;;;;;2.97;1.88;;;;;;;20.21;54.99;100680.06;5091471;28;20072;-65
2023/05/04 04:08:09;;;;;;;3.40;2.10;;;;;;;20.20;54.96;100673.78;5093275;28;20133;-65
2023/05/04 04:10:38;;;;;;;3.70;1.80;;;;;;;20.20;55.11;100678.34;5095362;28;20121;-64
2023/05/04 04:13:07;;;;;;;2.40;1.73;;;;;;;20.19;55.22;100677.50;5095634;28;20121;-65
2023/05/04 04:15:35;;;;;;;3.20;2.00;;;;;;;20.19;54.99;100682.06;5095478;28;20047;-65
2023/05/04 04:18:04;;;;;;;3.20;2.00;;;;;;;20.18;55.20;100685.78;5095291;28;20040;-65
2023/05/04 04:20:35;;;;;;;2.65;1.90;;;;;;;20.18;54.79;100691.19;5095321;28;20102;-66
2023/05/04 04:23:04;;;;;;;2.63;1.80;;;;;;;20.17;54.78;100690.34;5094819;28;20382;-65
2023/05/04 04:25:32;;;;;;;3.85;2.08;;;;;;;20.18;55.17;100696.59;5096609;28;20044;-65
2023/05/04 04:28:00;;;;;;;2.88;1.85;;;;;;;20.16;54.75;100693.16;5095175;28;20087;-65
2023/05/04 04:30:32;;;;;;;3.10;2.00;;;;;;;20.15;55.07;100686.88;5095145;28;20135;-65
2023/05/04 04:33:01;;;;;;;3.22;1.88;;;;;;;20.16;54.85;100690.44;5095091;28;20139;-65
2023/05/04 04:35:29;;;;;;;2.65;1.70;;;;;;;20.15;54.75;100692.31;5094865;28;20048;-65
2023/05/04 04:37:57;;;;;;;2.63;1.60;;;;;;;20.15;54.71;100691.44;5095006;28;20048;-64
2023/05/04 04:40:28;;;;;;;3.22;1.95;;;;;;;20.14;55.08;100687.88;5094949;28;20102;-65
2023/05/04 04:42:56;;;;;;;2.83;1.80;;;;;;;20.14;55.10;100692.44;5094786;28;20044;-65
2023/05/04 04:45:24;;;;;;;3.13;1.88;;;;;;;20.14;55.10;100700.56;5094657;28;20489;-65
2023/05/04 04:47:54;;;;;;;3.85;1.67;;;;;;;20.13;55.00;100688.03;5094620;28;20089;-65
2023/05/04 04:50:27;;;;;;;2.75;1.90;;;;;;;20.13;54.63;100697.00;5094636;28;20052;-65
2023/05/04 04:52:56;;;;;;;2.63;1.80;;;;;;;20.12;54.70;100697.16;5094716;28;20055;-64
2023/05/04 04:55:25;;;;;;;2.80;1.75;;;;;;;20.11;54.70;100707.16;5094356;28;20535;-64
2023/05/04 04:57:54;;;;;;;2.88;2.03;;;;;;;20.12;54.93;100708.00;5094326;28;20068;-65
2023/05/04 05:00:23;;;;;;;3.17;2.10;;;;;;;20.11;54.60;100706.28;5094372;28;20482;-64
2023/05/04 05:02:51;;;;;;;2.45;1.67;;;;;;;20.10;54.73;100705.44;5094239;28;20720;-64
2023/05/04 05:05:21;;;;;;;2.42;1.70;;;;;;;20.11;54.69;100711.69;5094157;28;20047;-63
2023/05/04 05:07:49;;;;;;;3.47;1.83;;;;;;;20.10;54.92;100705.44;5093965;28;20500;-65
2023/05/04 05:10:21;;;;;;;2.78;1.75;;;;;;;20.10;54.92;100702.72;5094123;28;20052;-64
2023/05/04 05:12:49;;;;;;;3.15;1.90;;;;;;;20.10;54.66;100699.16;5094047;28;20040;-64
2023/05/04 05:15:18;;;;;;;2.97;1.90;;;;;;;20.11;54.79;100703.59;5093722;28;20047;-66
2023/05/04 05:17:46;;;;;;;2.72;1.73;;;;;;;20.10;54.75;100704.59;5093832;28;20410;-65
2023/05/04 05:20:17;;;;;;;2.78;1.77;;;;;;;20.10;54.70;100710.00;5093692;28;20048;-64
2023/05/04 05:22:47;;;;;;;3.42;2.00;;;;;;;20.10;54.86;100712.72;5093725;28;20135;-64
2023/05/04 05:25:19;;;;;;;2.50;1.75;;;;;;;20.10;54.97;100716.25;5093747;28;20078;-64
2023/05/04 05:27:47;;;;;;;2.72;1.77;;;;;;;20.10;54.57;100715.41;5093630;28;20078;-63
2023/05/04 05:30:17;;;;;;;2.78;1.73;;;;;;;20.09;54.90;100711.00;5093661;28;20052;-63
2023/05/04 05:32:49;;;;;;;2.67;1.73;;;;;;;20.09;54.89;100713.72;5093984;28;20040;-64
2023/05/04 05:35:17;;;;;;;2.50;1.70;;;;;;;20.09;54.54;100713.72;5093853;28;20117;-63
2023/05/04 05:37:47;;;;;;;2.45;1.70;;;;;;;20.09;54.78;100708.28;5093536;28;20411;-63
2023/05/04 05:40:15;;;;;;;2.17;1.63;;;;;;;20.08;54.81;100706.59;5093865;28;20044;-64
2023/05/04 05:42:44;;;;;;;3.10;2.00;;;;;;;20.09;54.78;100705.59;5093759;28;20052;-64
2023/05/04 05:45:12;;;;;;;2.35;1.65;;;;;;;20.07;54.68;100710.25;5093209;28;20052;-64
2023/05/04 05:47:41;;;;;;;2.55;1.73;;;;;;;20.08;54.49;100715.56;5093335;28;20044;-64
2023/05/04 05:50:13;;;;;;;2.97;1.80;;;;;;;20.09;54.68;100713.72;5093338;28;20135;-64
2023/05/04 05:52:41;;;;;;;2.78;1.85;;;;;;;20.08;54.35;100718.28;5093317;28;20506;-64
2023/05/04 05:55:11;;;;;;;2.50;1.60;;;;;;;20.08;54.68;100718.28;5093128;28;20048;-64
2023/05/04 05:57:39;;;;;;;2.42;1.70;;;;;;;20.07;54.58;100718.38;5093033;28;20618;-63
2023/05/04 06:00:09;;;;;;;3.20;2.00;;;;;;;20.09;54.47;100724.53;5093083;28;20048;-63
2023/05/04 06:02:37;;;;;;;2.65;1.58;;;;;;;20.09;54.67;100721.84;5093224;28;20083;-63
2023/05/04 06:05:05;;;;;;;2.05;1.45;;;;;;;20.08;54.57;100720.13;5092936;28;20056;-64
2023/05/04 06:07:34;;;;;;;2.80;1.67;;;;;;;20.06;54.85;100720.25;5092864;28;20058;-64
2023/05/04 06:10:03;;;;;;;2.65;1.73;;;;;;;20.06;54.46;100720.25;5093077;28;20191;-63
2023/05/04 06:12:33;;;;;;;2.95;1.70;;;;;;;20.07;54.79;100721.09;5092938;28;20103;-63
2023/05/04 06:15:02;;;;;;;2.83;1.70;;;;;;;20.07;54.46;100718.38;5092776;28;20472;-64
2023/05/04 06:17:30;;;;;;;3.35;2.00;;;;;;;20.08;54.28;100728.25;5092871;28;20059;-63
2023/05/04 06:19:59;;;;;;;2.22;1.67;;;;;;;20.08;54.32;100722.84;5092435;28;20040;-63
2023/05/04 06:22:28;;;;;;;2.88;1.90;;;;;;;20.07;54.50;100723.78;5093034;28;20459;-63
2023/05/04 06:24:56;;;;;;;2.47;1.65;;;;;;;20.07;54.25;100731.91;5092387;28;20134;-64
2023/05/04 06:27:31;;;;;;;2.97;1.73;;;;;;;20.06;54.50;100730.22;5092439;28;20416;-63
2023/05/04 06:30:06;;;;;;;2.67;1.70;;;;;;;20.06;54.43;100741.91;5105357;28;20075;-63
2023/05/04 06:32:39;;;;;;;2.72;1.80;;;;;;;20.08;54.35;100736.38;5111129;28;20104;-63
2023/05/04 06:35:09;;;;;;;3.40;1.95;;;;;;;20.07;54.45;100740.03;5112274;28;20109;-63
2023/05/04 06:37:37;;;;;;;2.88;1.55;;;;;;;20.07;54.53;100732.78;5111746;28;20431;-63
2023/05/04 06:40:10;;;;;;;2.60;1.80;;;;;;;20.07;54.29;100732.78;5111995;28;20618;-63
2023/05/04 06:42:39;;;;;;;2.80;1.90;;;;;;;20.07;54.61;100732.78;5112388;28;20043;-63
2023/05/04 06:45:10;;;;;;;2.70;1.70;;;;;;;20.07;54.72;100731.91;5112425;28;20130;-63
2023/05/04 06:47:38;;;;;;;2.58;1.83;;;;;;;20.08;54.43;100739.06;5113156;28;20470;-63
2023/05/04 06:50:10;;;;;;;2.88;1.90;;;;;;;20.08;54.66;100744.50;5112822;28;20454;-63
2023/05/04 06:52:40;;;;;;;2.80;1.70;;;;;;;20.07;54.29;100753.59;5113038;28;20044;-63
2023/05/04 06:55:08;;;;;;;2.42;1.58;;;;;;;20.08;54.37;100753.47;5112530;28;20073;-64
2023/05/04 06:57:36;;;;;;;3.50;1.90;;;;;;;20.07;54.74;100754.44;5112342;28;20104;-63
2023/05/04 07:00:07;;;;;;;3.95;2.00;;;;;;;20.09;54.50;100743.50;5112564;28;20100;-64
2023/05/04 07:02:37;;;;;;;3.10;2.00;;;;;;;20.09;54.67;100746.19;5112728;28;20043;-63
2023/05/04 07:05:06;;;;;;;2.70;1.80;;;;;;;20.09;54.36;100743.50;5112461;28;20051;-63
2023/05/04 07:07:35;;;;;;;3.72;2.00;;;;;;;20.08;54.20;100749.91;5112430;28;20047;-63
2023/05/04 07:10:04;;;;;;;5.05;2.17;;;;;;;20.09;54.46;100740.78;5112155;28;20077;-63
2023/05/04 07:12:36;;;;;;;3.67;1.80;;;;;;;20.08;54.30;100731.81;5112366;28;20043;-64
2023/05/04 07:15:07;;;;;;;4.93;1.80;;;;;;;20.08;54.56;100729.09;5112193;28;20054;-63
2023/05/04 07:17:38;;;;;;;4.97;1.75;;;;;;;20.09;54.27;100736.22;5112245;28;20124;-63
2023/05/04 07:20:08;;;;;;;3.35;1.90;;;;;;;20.10;54.37;100734.38;5112264;28;20479;-63
2023/05/04 07:22:36;;;;;;;3.85;2.00;;;;;;;20.10;54.48;100731.66;5112154;28;20051;-63
2023/05/04 07:25:05;;;;;;;3.97;2.08;;;;;;;20.10;54.50;100735.22;5112004;28;20553;-63
2023/05/04 07:27:34;;;;;;;4.80;2.20;;;;;;;20.11;54.51;100738.78;5112182;28;20047;-63
2023/05/04 07:30:07;;;;;;;5.32;2.17;;;;;;;20.11;54.47;100739.63;5111940;28;20089;-63
2023/05/04 07:32:37;;;;;;;8.13;2.42;;;;;;;20.11;54.33;100741.50;5110837;28;20096;-63
2023/05/04 07:35:06;;;;;;;4.57;2.03;;;;;;;20.11;54.42;100738.78;5111851;28;20048;-64
2023/05/04 07:37:35;;;;;;;5.78;2.00;;;;;;;20.13;53.95;100744.91;5112123;28;20050;-64
2023/05/04 07:40:06;;;;;;;7.50;2.30;;;;;;;20.13;54.19;100750.31;5111814;28;20054;-64
2023/05/04 07:42:35;;;;;;;4.95;2.20;;;;;;;20.14;54.13;100743.91;5112870;28;20083;-64
2023/05/04 07:45:04;;;;;;;5.80;2.20;;;;;;;20.14;54.01;100741.19;5116128;28;20493;-64
2023/05/04 07:47:32;;;;;;;7.70;2.67;;;;;;;20.15;54.04;100741.06;5116150;28;20043;-64
2023/05/04 07:50:03;;;;;;;5.93;2.38;;;;;;;20.14;54.30;100739.34;5115900;27;20046;-63
2023/05/04 07:52:33;;;;;;;4.65;2.20;;;;;;;20.16;54.36;100741.91;5115980;28;20052;-64
2023/05/04 07:55:01;;;;;;;4.68;2.15;;;;;;;20.15;54.04;100746.47;5115992;28;20047;-63
2023/05/04 07:57:31;;;;;;;8.18;2.53;;;;;;;20.17;54.08;100743.63;5115867;28;20134;-64
2023/05/04 07:59:59;;;;;;;6.68;2.38;;;;;;;20.17;54.07;100738.19;5115961;28;20039;-63
2023/05/04 08:02:27;;;;;;;6.05;2.22;;;;;;;20.17;54.21;100736.38;5115806;28;20048;-64
2023/05/04 08:04:56;;;;;;;7.45;2.30;;;;;;;20.18;54.09;100745.34;5115682;28;20465;-63
2023/05/04 08:07:25;;;;;;;5.85;2.53;;;;;;;20.18;53.97;100740.78;5115839;28;20043;-63
2023/05/04 08:09:55;;;;;;;4.75;2.30;;;;;;;20.20;54.41;100748.78;5115712;28;20135;-63
2023/05/04 08:12:25;;;;;;;7.50;2.53;;;;;;;20.20;54.42;100756.91;5115415;28;20083;-62
2023/05/04 08:14:53;;;;;;;4.88;2.20;;;;;;;20.21;54.12;100745.91;5115499;28;20048;-62
2023/05/04 08:17:22;;;;;;;4.68;2.00;;;;;;;20.21;54.22;100747.78;5115460;28;20047;-64
2023/05/04 08:19:50;;;;;;;5.10;2.20;;;;;;;20.21;54.33;100753.19;5115921;28;20071;-64
2023/05/04 08:22:20;;;;;;;8.23;2.60;;;;;;;20.22;54.04;100754.91;5115699;27;20148;-62
2023/05/04 08:24:49;;;;;;;8.82;2.22;;;;;;;20.23;54.24;100749.31;5115343;28;20047;-62
2023/05/04 08:27:17;;;;;;;5.65;2.50;;;;;;;20.24;53.86;100750.19;5115514;28;20079;-63
2023/05/04 08:29:45;;;;;;;6.05;2.30;;;;;;;20.25;54.00;100755.44;5115381;28;20047;-63
2023/05/04 08:32:13;;;;;;;6.78;2.42;;;;;;;20.26;53.94;100754.44;5115530;28;20066;-63
2023/05/04 08:34:42;;;;;;;6.40;2.22;;;;;;;20.26;54.24;100748.19;5115545;28;20499;-64
2023/05/04 08:37:10;;;;;;;6.28;2.50;;;;;;;20.27;54.30;100764.31;5115472;28;20047;-63
2023/05/04 08:39:42;;;;;;;4.68;2.53;;;;;;;20.28;54.41;100751.63;5115404;28;20438;-63
2023/05/04 08:42:12;;;;;;;5.50;2.40;;;;;;;20.30;53.99;100755.03;5115087;28;20050;-63
2023/05/04 08:44:40;;;;;;;5.93;2.30;;;;;;;20.29;53.84;100759.59;5115318;28;20047;-64
2023/05/04 08:47:11;;;;;;;5.43;2.25;;;;;;;20.31;54.26;100759.47;5114897;28;20051;-63
2023/05/04 08:49:39;;;;;;;4.18;2.10;;;;;;;20.32;53.94;100750.31;5114984;28;20047;-63
2023/05/04 08:52:09;;;;;;;5.90;2.20;;;;;;;20.33;54.23;100753.88;5114763;28;20051;-64
2023/05/04 08:54:41;;;;;;;4.80;2.30;;;;;;;20.34;54.04;100756.44;5114143;28;20096;-63
2023/05/04 08:57:11;;;;;;;6.72;2.35;;;;;;;20.35;53.89;100755.44;5114857;28;20433;-63
2023/05/04 08:59:41;;;;;;;6.50;2.85;;;;;;;20.36;53.88;100749.03;5115007;28;20097;-63
2023/05/04 09:02:13;;;;;;;4.80;2.22;;;;;;;20.38;53.84;100757.91;5114923;28;20054;-63
2023/05/04 09:04:41;;;;;;;6.90;2.33;;;;;;;20.39;53.83;100758.75;5114798;28;20349;-63
2023/05/04 09:07:09;;;;;;;4.22;2.35;;;;;;;20.39;54.28;100754.19;5114689;28;20093;-61
2023/05/04 09:09:38;;;;;;;6.03;2.42;;;;;;;20.41;54.02;100749.47;5114630;28;20048;-63
2023/05/04 09:12:07;;;;;;;6.72;2.40;;;;;;;20.42;53.87;100755.75;5114857;28;20075;-63
2023/05/04 09:14:37;;;;;;;6.43;2.10;;;;;;;20.43;53.85;100749.34;5114620;28;20040;-63
2023/05/04 09:17:15;;;;;;;6.72;2.40;;;;;;;20.43;54.24;100755.63;5114661;28;20076;-64
2023/05/04 09:19:44;;;;;;;7.00;2.45;;;;;;;20.45;53.80;100753.63;5114303;27;20087;-63
2023/05/04 09:22:16;;;;;;;5.88;2.63;;;;;;;20.47;53.84;100748.94;5114867;28;20047;-64
2023/05/04 09:24:45;;;;;;;5.65;2.40;;;;;;;20.48;54.06;100745.22;5114457;28;20047;-64
2023/05/04 09:27:16;;;;;;;6.00;2.85;;;;;;;20.49;53.79;100746.94;5114469;28;20052;-64
2023/05/04 09:29:54;;;;;;;4.45;2.25;;;;;;;20.51;53.68;100738.66;5114316;28;20052;-63
2023/05/04 09:32:22;;;;;;;6.05;2.33;;;;;;;20.52;53.74;100746.63;5114083;28;20132;-63
2023/05/04 09:34:53;;;;;;;5.88;2.50;;;;;;;20.54;53.94;100741.91;5114362;28;20075;-62
2023/05/04 09:37:21;;;;;;;4.97;2.50;;;;;;;20.55;53.86;100738.22;5114120;28;20048;-63
2023/05/04 09:39:52;;;;;;;7.03;2.20;;;;;;;20.57;53.90;100733.53;5114008;28;20096;-63
2023/05/04 09:42:20;;;;;;;5.75;2.17;;;;;;;20.58;53.82;100731.66;5113886;28;20058;-63
2023/05/04 09:45:00;;;;;;;5.53;2.28;;;;;;;20.60;53.79;100726.94;5113892;28;20413;-62
2023/05/04 09:47:34;;;;;;;5.05;2.50;;;;;;;20.62;53.64;100732.22;5113870;27;20081;-64
2023/05/04 09:50:16;;;;;;;7.30;2.40;;;;;;;20.63;53.92;100737.50;5113980;28;20077;-64
2023/05/04 09:52:48;;;;;;;4.78;2.20;;;;;;;20.67;53.65;100740.78;5113606;28;20051;-64
2023/05/04 09:55:18;;;;;;;6.28;2.38;;;;;;;20.67;54.06;100730.78;5113729;28;20139;-64
2023/05/04 09:57:47;;;;;;;4.68;2.40;;;;;;;20.69;53.95;100733.34;5114177;28;20058;-63
2023/05/04 10:00:18;;;;;;;5.30;2.28;;;;;;;20.71;54.03;100731.34;5113447;28;20039;-64
2023/05/04 10:02:47;;;;;;;4.97;2.20;;;;;;;20.73;53.87;100723.91;5113305;28;20088;-64
2023/05/04 10:05:20;;;;;;;5.22;2.30;;;;;;;20.75;54.01;100719.19;5112069;28;20491;-63
2023/05/04 10:07:49;;;;;;;6.15;2.30;;;;;;;20.76;53.89;100716.38;5113320;28;20082;-64
2023/05/04 10:10:18;;;;;;;5.03;2.20;;;;;;;20.79;53.91;100717.94;5113308;28;20089;-63
2023/05/04 10:12:46;;;;;;;4.90;2.40;;;;;;;20.82;54.36;100714.91;5113173;28;20083;-64
2023/05/04 10:15:17;;;;;;;5.05;2.33;;;;;;;20.84;54.13;100710.19;5113340;28;20525;-64
2023/05/04 10:18:01;;;;;;;5.20;2.35;;;;;;;20.86;54.11;100710.91;5113478;28;20048;-63
2023/05/04 10:20:44;;;;;;;5.85;2.22;;;;;;;20.88;53.84;100705.34;5112975;28;20450;-65
2023/05/04 10:23:26;;;;;;;;;;;;;;;20.89;53.88;100697.06;5113874;28;20054;-64
2023/05/04 10:26:21;;;;;;;5.03;2.17;;;;;;;20.92;54.14;100702.16;5113088;28;19959;-63
2023/05/04 10:29:05;;;;;;;5.35;2.33;;;;;;;20.95;54.22;100703.75;5112944;28;20094;-63
2023/05/04 10:31:38;;;;;;;6.35;2.28;;;;;;;20.98;53.97;100700.75;5113204;28;20075;-62
2023/05/04 10:34:09;;;;;;;6.15;2.00;;;;;;;21.00;54.29;100687.88;5113083;28;20044;-63
2023/05/04 10:36:37;;;;;;;4.60;1.98;;;;;;;21.04;54.29;100692.03;5112847;28;20043;-65
2023/05/04 10:39:17;;;;;;;5.20;2.63;;;;;;;21.06;54.43;100692.72;5112804;28;20466;-62
2023/05/04 10:41:57;;;;;;;5.30;2.20;;;;;;;21.09;54.44;100687.84;5113110;28;20054;-63
2023/05/04 10:44:27;;;;;;;4.78;2.33;;;;;;;21.12;54.15;100684.81;5112807;28;20514;-63
2023/05/04 10:47:00;;;;;;;5.70;2.30;;;;;;;21.15;54.13;100684.53;5113415;28;20047;-63
2023/05/04 10:49:30;;;;;;;6.68;2.45;;;;;;;21.19;54.75;100686.94;5112693;28;20043;-63
2023/05/04 10:52:19;;;;;;;6.40;2.30;;;;;;;21.23;54.36;100677.47;5112552;28;20051;-63
2023/05/04 10:54:59;;;;;;;5.40;2.10;;;;;;;21.25;54.36;100672.78;5108171;28;20044;-64
2023/05/04 10:57:28;;;;;;;6.53;2.42;;;;;;;21.29;54.39;100676.94;5112643;28;20067;-63
2023/05/04 10:59:57;;;;;;;5.80;2.58;;;;;;;21.32;54.75;100672.03;5112315;28;20047;-64
2023/05/04 11:02:27;;;;;;;5.72;2.00;;;;;;;21.36;54.57;100667.19;5112273;28;20152;-64
2023/05/04 11:05:02;;;;;;;4.28;2.00;;;;;;;21.39;54.71;100662.28;5112179;28;20051;-63
2023/05/04 11:07:36;;;;;;;5.78;2.40;;;;;;;21.44;54.68;100659.16;5112076;28;20124;-63
2023/05/04 11:10:07;;;;;;;5.10;2.25;;;;;;;21.48;54.68;100657.81;5112398;28;20404;-63
2023/05/04 11:12:37;;;;;;;4.97;2.13;;;;;;;21.51;54.71;100649.34;5112042;28;20055;-64
2023/05/04 11:15:08;;;;;;;4.97;2.25;;;;;;;21.53;55.02;100644.66;5112053;28;20101;-65
2023/05/04 11:17:45;;;;;;;6.53;2.40;;;;;;;21.55;54.99;100645.34;5112216;27;20082;-63
2023/05/04 11:20:24;;;;;;;5.25;2.17;;;;;;;21.59;54.82;100646.75;5112338;28;20393;-65
2023/05/04 11:22:53;;;;;;;5.75;2.10;;;;;;;21.62;54.70;100646.44;5112085;27;20109;-64
2023/05/04 11:25:27;;;;;;;4.20;2.13;;;;;;;21.67;54.74;100641.41;5111736;28;20079;-64
2023/05/04 11:27:56;;;;;;;4.30;2.30;;;;;;;21.71;54.48;100636.50;5112253;28;20048;-63
2023/05/04 11:30:31;;;;;;;3.30;1.80;;;;;;;21.76;54.65;100631.47;5112292;28;20177;-63
2023/05/04 11:33:00;;;;;;;5.13;2.10;;;;;;;21.79;54.31;100633.00;5112520;28;20052;-63
2023/05/04 11:35:29;;;;;;;5.53;2.05;;;;;;;21.83;54.67;100632.56;5112062;28;20051;-64
2023/05/04 11:37:58;;;;;;;5.10;2.05;;;;;;;21.88;54.40;100626.66;5111899;28;20054;-62